sensor_id;sensor_type;location;lat;lon;timestamp;pressure;altitude;pressure_sealevel;temperature;humidity
79309;BME280;68767;53.078;7.386;2023-12-20T00:02:17;101597.59;;;4.46;100.00
79309;BME280;68767;53.078;7.386;2023-12-20T00:04:44;101584.06;;;4.48;100.00
79309;BME280;68767;53.078;7.386;2023-12-20T00:07:11;101580.03;;;4.45;100.00
79309;BME280;68767;53.078;7.386;2023-12-20T00:09:39;101566.72;;;4.40;100.00
79309;BME280;68767;53.078;7.386;2023-12-20T00:12:06;101568.53;;;4.35;100.00
79309;BME280;68767;53.078;7.386;2023-12-20T00:14:33;101568.81;;;4.33;100.00
79309;BME280;68767;53.078;7.386;2023-12-20T00:17:00;101574.13;;;4.33;100.00
79309;BME280;68767;53.078;7.386;2023-12-20T00:19:27;101572.22;;;4.29;100.00
79309;BME280;68767;53.078;7.386;2023-12-20T00:21:54;101572.75;;;4.26;100.00
79309;BME280;68767;53.078;7.386;2023-12-20T00:24:21;101564.81;;;4.31;100.00
79309;BME280;68767;53.078;7.386;2023-12-20T00:26:47;101554.69;;;4.33;100.00
79309;BME280;68767;53.078;7.386;2023-12-20T00:29:14;101550.44;;;4.32;100.00
79309;BME280;68767;53.078;7.386;2023-12-20T00:31:41;101544.53;;;4.25;100.00
79309;BME280;68767;53.078;7.386;2023-12-20T00:34:08;101544.28;;;4.26;100.00
79309;BME280;68767;53.078;7.386;2023-12-20T00:36:36;101542.38;;;4.21;100.00
79309;BME280;68767;53.078;7.386;2023-12-20T00:39:03;101538.13;;;4.20;100.00
79309;BME280;68767;53.078;7.386;2023-12-20T00:41:31;101534.94;;;4.18;100.00
79309;BME280;68767;53.078;7.386;2023-12-20T00:43:58;101544.47;;;4.14;100.00
79309;BME280;68767;53.078;7.386;2023-12-20T00:46:25;101542.63;;;4.15;100.00
79309;BME280;68767;53.078;7.386;2023-12-20T00:48:52;101545.03;;;4.16;100.00
79309;BME280;68767;53.078;7.386;2023-12-20T00:51:19;101556.47;;;4.17;100.00
79309;BME280;68767;53.078;7.386;2023-12-20T00:53:46;101539.41;;;4.13;100.00
79309;BME280;68767;53.078;7.386;2023-12-20T00:56:16;101541.56;;;4.16;100.00
79309;BME280;68767;53.078;7.386;2023-12-20T00:58:43;101536.78;;;4.18;100.00
79309;BME280;68767;53.078;7.386;2023-12-20T01:01:10;101538.91;;;4.16;100.00
79309;BME280;68767;53.078;7.386;2023-12-20T01:03:37;101544.22;;;4.16;100.00
79309;BME280;68767;53.078;7.386;2023-12-20T01:06:04;101538.88;;;4.11;100.00
79309;BME280;68767;53.078;7.386;2023-12-20T01:08:32;101524.50;;;4.07;100.00
79309;BME280;68767;53.078;7.386;2023-12-20T01:10:59;101534.66;;;4.15;100.00
79309;BME280;68767;53.078;7.386;2023-12-20T01:13:25;101520.56;;;4.14;100.00
79309;BME280;68767;53.078;7.386;2023-12-20T01:15:52;101518.94;;;4.13;100.00
79309;BME280;68767;53.078;7.386;2023-12-20T01:18:19;101517.91;;;4.14;100.00
79309;BME280;68767;53.078;7.386;2023-12-20T01:20:47;101517.63;;;4.16;100.00
79309;BME280;68767;53.078;7.386;2023-12-20T01:23:13;101517.63;;;4.16;100.00
79309;BME280;68767;53.078;7.386;2023-12-20T01:25:40;101518.97;;;4.18;100.00
79309;BME280;68767;53.078;7.386;2023-12-20T01:28:08;101512.59;;;4.14;100.00
79309;BME280;68767;53.078;7.386;2023-12-20T01:30:35;101514.19;;;4.20;100.00
79309;BME280;68767;53.078;7.386;2023-12-20T01:33:02;101520.88;;;4.23;100.00
79309;BME280;68767;53.078;7.386;2023-12-20T01:35:29;101516.63;;;4.27;100.00
79309;BME280;68767;53.078;7.386;2023-12-20T01:37:56;101516.09;;;4.30;100.00
79309;BME280;68767;53.078;7.386;2023-12-20T01:40:23;101516.38;;;4.29;100.00
79309;BME280;68767;53.078;7.386;2023-12-20T01:43:08;101506.78;;;4.28;100.00
79309;BME280;68767;53.078;7.386;2023-12-20T01:45:35;101502.31;;;4.33;100.00
79309;BME280;68767;53.078;7.386;2023-12-20T01:48:04;101505.50;;;4.35;100.00
79309;BME280;68767;53.078;7.386;2023-12-20T01:50:32;101506.03;;;4.37;100.00
79309;BME280;68767;53.078;7.386;2023-12-20T01:53:02;101509.00;;;4.41;100.00
79309;BME280;68767;53.078;7.386;2023-12-20T01:55:31;101500.47;;;4.44;100.00
79309;BME280;68767;53.078;7.386;2023-12-20T01:58:00;101485.63;;;4.48;100.00
79309;BME280;68767;53.078;7.386;2023-12-20T02:00:28;101481.38;;;4.52;100.00
79309;BME280;68767;53.078;7.386;2023-12-20T02:02:56;101476.84;;;4.53;100.00
79309;BME280;68767;53.078;7.386;2023-12-20T02:05:29;101471.56;;;4.58;100.00
79309;BME280;68767;53.078;7.386;2023-12-20T02:07:57;101471.81;;;4.56;100.00
79309;BME280;68767;53.078;7.386;2023-12-20T02:10:24;101475.81;;;4.59;100.00
79309;BME280;68767;53.078;7.386;2023-12-20T02:12:52;101470.50;;;4.59;100.00
79309;BME280;68767;53.078;7.386;2023-12-20T02:15:19;101480.88;;;4.60;100.00
79309;BME280;68767;53.078;7.386;2023-12-20T02:17:47;101481.41;;;4.57;100.00
79309;BME280;68767;53.078;7.386;2023-12-20T02:20:14;101486.72;;;4.62;100.00
79309;BME280;68767;53.078;7.386;2023-12-20T02:22:41;101475.00;;;4.63;100.00
79309;BME280;68767;53.078;7.386;2023-12-20T02:25:08;101489.94;;;4.69;100.00
79309;BME280;68767;53.078;7.386;2023-12-20T02:27:35;101481.19;;;4.79;100.00
79309;BME280;68767;53.078;7.386;2023-12-20T02:30:02;101488.94;;;4.81;100.00
79309;BME280;68767;53.078;7.386;2023-12-20T02:32:29;101480.16;;;4.80;100.00
79309;BME280;68767;53.078;7.386;2023-12-20T02:34:57;101473.19;;;4.79;100.00
79309;BME280;68767;53.078;7.386;2023-12-20T02:37:24;101470.81;;;4.77;100.00
79309;BME280;68767;53.078;7.386;2023-12-20T02:39:51;101466.53;;;4.76;100.00
79309;BME280;68767;53.078;7.386;2023-12-20T02:42:18;101467.59;;;4.70;100.00
79309;BME280;68767;53.078;7.386;2023-12-20T02:44:45;101462.25;;;4.65;100.00
79309;BME280;68767;53.078;7.386;2023-12-20T02:47:12;101456.41;;;4.68;100.00
79309;BME280;68767;53.078;7.386;2023-12-20T02:49:39;101456.94;;;4.70;100.00
79309;BME280;68767;53.078;7.386;2023-12-20T02:52:06;101478.78;;;4.72;100.00
79309;BME280;68767;53.078;7.386;2023-12-20T02:54:33;101462.56;;;4.74;100.00
79309;BME280;68767;53.078;7.386;2023-12-20T02:57:00;101455.88;;;4.71;100.00
79309;BME280;68767;53.078;7.386;2023-12-20T02:59:27;101447.88;;;4.71;100.00
79309;BME280;68767;53.078;7.386;2023-12-20T03:01:54;101445.50;;;4.70;100.00
79309;BME280;68767;53.078;7.386;2023-12-20T03:04:21;101438.59;;;4.74;100.00
79309;BME280;68767;53.078;7.386;2023-12-20T03:06:48;101431.91;;;4.71;100.00
79309;BME280;68767;53.078;7.386;2023-12-20T03:09:15;101421.53;;;4.70;100.00
79309;BME280;68767;53.078;7.386;2023-12-20T03:11:42;101427.13;;;4.68;100.00
79309;BME280;68767;53.078;7.386;2023-12-20T03:14:09;101422.34;;;4.65;100.00
79309;BME280;68767;53.078;7.386;2023-12-20T03:16:36;101424.44;;;4.63;100.00
79309;BME280;68767;53.078;7.386;2023-12-20T03:19:03;101427.91;;;4.59;100.00
79309;BME280;68767;53.078;7.386;2023-12-20T03:21:30;101418.31;;;4.63;100.00
79309;BME280;68767;53.078;7.386;2023-12-20T03:23:57;101417.56;;;4.67;100.00
79309;BME280;68767;53.078;7.386;2023-12-20T03:26:24;101413.56;;;4.65;100.00
79309;BME280;68767;53.078;7.386;2023-12-20T03:28:51;101413.81;;;4.68;100.00
79309;BME280;68767;53.078;7.386;2023-12-20T03:31:18;101415.41;;;4.69;100.00
79309;BME280;68767;53.078;7.386;2023-12-20T03:33:46;101424.22;;;4.75;100.00
79309;BME280;68767;53.078;7.386;2023-12-20T03:36:13;101427.94;;;4.79;100.00
79309;BME280;68767;53.078;7.386;2023-12-20T03:38:40;101409.06;;;4.81;100.00
79309;BME280;68767;53.078;7.386;2023-12-20T03:41:07;101408.50;;;4.78;100.00
79309;BME280;68767;53.078;7.386;2023-12-20T03:43:34;101413.84;;;4.73;100.00
79309;BME280;68767;53.078;7.386;2023-12-20T03:46:02;101410.38;;;4.73;100.00
79309;BME280;68767;53.078;7.386;2023-12-20T03:48:31;101398.38;;;4.70;100.00
79309;BME280;68767;53.078;7.386;2023-12-20T03:50:58;101393.34;;;4.74;100.00
79309;BME280;68767;53.078;7.386;2023-12-20T03:53:25;101397.84;;;4.68;100.00
79309;BME280;68767;53.078;7.386;2023-12-20T03:55:51;101388.28;;;4.67;100.00
79309;BME280;68767;53.078;7.386;2023-12-20T03:58:18;101405.59;;;4.65;100.00
79309;BME280;68767;53.078;7.386;2023-12-20T04:00:45;101391.47;;;4.69;100.00
79309;BME280;68767;53.078;7.386;2023-12-20T04:03:12;101390.16;;;4.72;100.00
79309;BME280;68767;53.078;7.386;2023-12-20T04:05:40;101389.88;;;4.78;100.00
79309;BME280;68767;53.078;7.386;2023-12-20T04:08:08;101393.38;;;4.84;100.00
79309;BME280;68767;53.078;7.386;2023-12-20T04:10:35;101390.69;;;4.84;100.00
79309;BME280;68767;53.078;7.386;2023-12-20T04:13:04;101385.63;;;4.88;100.00
79309;BME280;68767;53.078;7.386;2023-12-20T04:15:31;101373.94;;;4.89;100.00
79309;BME280;68767;53.078;7.386;2023-12-20T04:17:58;101387.25;;;4.89;100.00
79309;BME280;68767;53.078;7.386;2023-12-20T04:20:26;101389.09;;;4.93;100.00
79309;BME280;68767;53.078;7.386;2023-12-20T04:22:52;101391.22;;;4.96;100.00
79309;BME280;68767;53.078;7.386;2023-12-20T04:25:19;101373.94;;;4.99;100.00
79309;BME280;68767;53.078;7.386;2023-12-20T04:27:46;101371.28;;;4.99;100.00
79309;BME280;68767;53.078;7.386;2023-12-20T04:30:14;101371.00;;;5.00;100.00
79309;BME280;68767;53.078;7.386;2023-12-20T04:32:41;101372.88;;;5.00;100.00
79309;BME280;68767;53.078;7.386;2023-12-20T04:35:08;101376.06;;;5.02;100.00
79309;BME280;68767;53.078;7.386;2023-12-20T04:37:35;101377.13;;;5.01;100.00
79309;BME280;68767;53.078;7.386;2023-12-20T04:40:02;101380.88;;;5.05;100.00
79309;BME280;68767;53.078;7.386;2023-12-20T04:42:29;101384.06;;;5.02;100.00
79309;BME280;68767;53.078;7.386;2023-12-20T04:44:56;101378.47;;;5.03;100.00
79309;BME280;68767;53.078;7.386;2023-12-20T04:47:23;101384.31;;;5.00;100.00
79309;BME280;68767;53.078;7.386;2023-12-20T04:49:50;101376.06;;;5.02;100.00
79309;BME280;68767;53.078;7.386;2023-12-20T04:52:17;101376.09;;;4.97;100.00
79309;BME280;68767;53.078;7.386;2023-12-20T04:54:45;101360.38;;;4.90;100.00
79309;BME280;68767;53.078;7.386;2023-12-20T04:57:12;101368.06;;;4.87;100.00
79309;BME280;68767;53.078;7.386;2023-12-20T04:59:39;101366.75;;;4.84;100.00
79309;BME280;68767;53.078;7.386;2023-12-20T05:02:05;101370.19;;;4.79;100.00
79309;BME280;68767;53.078;7.386;2023-12-20T05:04:32;101358.22;;;4.77;100.00
79309;BME280;68767;53.078;7.386;2023-12-20T05:06:59;101348.38;;;4.77;100.00
79309;BME280;68767;53.078;7.386;2023-12-20T05:09:27;101364.88;;;4.79;100.00
79309;BME280;68767;53.078;7.386;2023-12-20T05:11:53;101363.28;;;4.84;100.00
79309;BME280;68767;53.078;7.386;2023-12-20T05:14:20;101362.50;;;4.88;100.00
79309;BME280;68767;53.078;7.386;2023-12-20T05:16:47;101362.22;;;4.95;100.00
79309;BME280;68767;53.078;7.386;2023-12-20T05:19:14;101375.53;;;5.00;100.00
79309;BME280;68767;53.078;7.386;2023-12-20T05:21:41;101371.53;;;5.02;100.00
79309;BME280;68767;53.078;7.386;2023-12-20T05:24:08;101377.16;;;5.06;100.00
79309;BME280;68767;53.078;7.386;2023-12-20T05:26:35;101371.00;;;5.11;100.00
79309;BME280;68767;53.078;7.386;2023-12-20T05:29:02;101367.28;;;5.12;100.00
79309;BME280;68767;53.078;7.386;2023-12-20T05:31:29;101370.22;;;5.10;100.00
79309;BME280;68767;53.078;7.386;2023-12-20T05:33:56;101365.97;;;5.14;100.00
79309;BME280;68767;53.078;7.386;2023-12-20T05:36:23;101363.53;;;5.13;100.00
79309;BME280;68767;53.078;7.386;2023-12-20T05:38:50;101360.63;;;5.14;100.00
79309;BME280;68767;53.078;7.386;2023-12-20T05:41:17;101354.22;;;5.20;100.00
79309;BME280;68767;53.078;7.386;2023-12-20T05:43:44;101345.97;;;5.22;100.00
79309;BME280;68767;53.078;7.386;2023-12-20T05:46:11;101348.91;;;5.25;100.00
79309;BME280;68767;53.078;7.386;2023-12-20T05:48:39;101352.34;;;5.26;100.00
79309;BME280;68767;53.078;7.386;2023-12-20T05:51:06;101351.28;;;5.32;100.00
79309;BME280;68767;53.078;7.386;2023-12-20T05:53:33;101348.06;;;5.35;100.00
79309;BME280;68767;53.078;7.386;2023-12-20T05:56:00;101345.97;;;5.32;100.00
79309;BME280;68767;53.078;7.386;2023-12-20T05:58:27;101347.03;;;5.31;100.00
79309;BME280;68767;53.078;7.386;2023-12-20T06:00:54;101348.63;;;5.32;100.00
79309;BME280;68767;53.078;7.386;2023-12-20T06:03:21;101349.94;;;5.34;100.00
79309;BME280;68767;53.078;7.386;2023-12-20T06:05:48;101343.53;;;5.35;100.00
79309;BME280;68767;53.078;7.386;2023-12-20T06:08:15;101337.69;;;5.33;100.00
79309;BME280;68767;53.078;7.386;2023-12-20T06:10:42;101327.84;;;5.34;100.00
79309;BME280;68767;53.078;7.386;2023-12-20T06:13:09;101312.13;;;5.27;100.00
79309;BME280;68767;53.078;7.386;2023-12-20T06:15:36;101320.91;;;5.33;100.00
79309;BME280;68767;53.078;7.386;2023-12-20T06:18:04;101311.56;;;5.35;100.00
79309;BME280;68767;53.078;7.386;2023-12-20T06:20:32;101306.53;;;5.34;100.00
79309;BME280;68767;53.078;7.386;2023-12-20T06:22:59;101316.09;;;5.35;100.00
79309;BME280;68767;53.078;7.386;2023-12-20T06:25:26;101321.16;;;5.36;100.00
79309;BME280;68767;53.078;7.386;2023-12-20T06:27:54;101319.06;;;5.39;100.00
79309;BME280;68767;53.078;7.386;2023-12-20T06:30:21;101313.69;;;5.44;100.00
79309;BME280;68767;53.078;7.386;2023-12-20T06:32:48;101312.63;;;5.45;100.00
79309;BME280;68767;53.078;7.386;2023-12-20T06:35:15;101311.53;;;5.46;100.00
79309;BME280;68767;53.078;7.386;2023-12-20T06:37:42;101307.81;;;5.52;100.00
79309;BME280;68767;53.078;7.386;2023-12-20T06:40:10;101302.75;;;5.55;100.00
79309;BME280;68767;53.078;7.386;2023-12-20T06:42:44;101298.47;;;5.54;100.00
79309;BME280;68767;53.078;7.386;2023-12-20T06:45:24;101306.47;;;5.54;100.00
79309;BME280;68767;53.078;7.386;2023-12-20T06:47:51;101293.69;;;5.51;100.00
79309;BME280;68767;53.078;7.386;2023-12-20T06:50:18;101296.63;;;5.55;100.00
79309;BME280;68767;53.078;7.386;2023-12-20T06:52:45;101304.06;;;5.53;100.00
79309;BME280;68767;53.078;7.386;2023-12-20T06:55:12;101291.03;;;5.51;100.00
79309;BME280;68767;53.078;7.386;2023-12-20T06:57:39;101301.69;;;5.56;100.00
79309;BME280;68767;53.078;7.386;2023-12-20T07:00:06;101297.94;;;5.57;100.00
79309;BME280;68767;53.078;7.386;2023-12-20T07:02:33;101296.88;;;5.58;100.00
79309;BME280;68767;53.078;7.386;2023-12-20T07:05:01;101294.47;;;5.57;100.00
79309;BME280;68767;53.078;7.386;2023-12-20T07:07:28;101288.59;;;5.60;100.00
79309;BME280;68767;53.078;7.386;2023-12-20T07:09:55;101292.84;;;5.61;100.00
79309;BME280;68767;53.078;7.386;2023-12-20T07:12:22;101270.22;;;5.58;100.00
79309;BME280;68767;53.078;7.386;2023-12-20T07:14:49;101273.69;;;5.59;100.00
79309;BME280;68767;53.078;7.386;2023-12-20T07:17:15;101275.53;;;5.58;100.00
79309;BME280;68767;53.078;7.386;2023-12-20T07:19:42;101279.00;;;5.64;100.00
79309;BME280;68767;53.078;7.386;2023-12-20T07:22:09;101284.06;;;5.60;100.00
79309;BME280;68767;53.078;7.386;2023-12-20T07:24:36;101280.59;;;5.60;100.00
79309;BME280;68767;53.078;7.386;2023-12-20T07:27:03;101284.56;;;5.62;100.00
79309;BME280;68767;53.078;7.386;2023-12-20T07:29:30;101270.22;;;5.63;100.00
79309;BME280;68767;53.078;7.386;2023-12-20T07:31:57;101279.50;;;5.66;100.00
79309;BME280;68767;53.078;7.386;2023-12-20T07:34:24;101272.03;;;5.68;100.00
79309;BME280;68767;53.078;7.386;2023-12-20T07:36:51;101269.88;;;5.70;100.00
79309;BME280;68767;53.078;7.386;2023-12-20T07:39:18;101259.50;;;5.69;100.00
79309;BME280;68767;53.078;7.386;2023-12-20T07:41:46;101277.88;;;5.70;100.00
79309;BME280;68767;53.078;7.386;2023-12-20T07:44:13;101276.00;;;5.71;100.00
79309;BME280;68767;53.078;7.386;2023-12-20T07:46:40;101272.56;;;5.70;100.00
79309;BME280;68767;53.078;7.386;2023-12-20T07:49:07;101271.50;;;5.71;100.00
79309;BME280;68767;53.078;7.386;2023-12-20T07:51:35;101270.69;;;5.76;100.00
79309;BME280;68767;53.078;7.386;2023-12-20T07:54:02;101276.28;;;5.74;100.00
79309;BME280;68767;53.078;7.386;2023-12-20T07:56:30;101269.88;;;5.75;100.00
79309;BME280;68767;53.078;7.386;2023-12-20T07:58:57;101272.25;;;5.77;100.00
79309;BME280;68767;53.078;7.386;2023-12-20T08:01:26;101269.31;;;5.78;100.00
79309;BME280;68767;53.078;7.386;2023-12-20T08:03:53;101268.50;;;5.83;100.00
79309;BME280;68767;53.078;7.386;2023-12-20T08:06:21;101268.78;;;5.81;100.00
79309;BME280;68767;53.078;7.386;2023-12-20T08:08:48;101263.69;;;5.85;100.00
79309;BME280;68767;53.078;7.386;2023-12-20T08:11:27;101266.09;;;5.86;100.00
79309;BME280;68767;53.078;7.386;2023-12-20T08:13:54;101274.91;;;5.92;100.00
79309;BME280;68767;53.078;7.386;2023-12-20T08:16:21;101267.41;;;5.94;100.00
79309;BME280;68767;53.078;7.386;2023-12-20T08:18:48;101266.63;;;5.94;100.00
79309;BME280;68767;53.078;7.386;2023-12-20T08:21:15;101267.97;;;5.96;100.00
79309;BME280;68767;53.078;7.386;2023-12-20T08:23:42;101262.56;;;6.01;100.00
79309;BME280;68767;53.078;7.386;2023-12-20T08:26:09;101260.41;;;6.03;100.00
79309;BME280;68767;53.078;7.386;2023-12-20T08:28:36;101261.47;;;6.07;100.00
79309;BME280;68767;53.078;7.386;2023-12-20T08:31:03;101259.31;;;6.09;100.00
79309;BME280;68767;53.078;7.386;2023-12-20T08:33:31;101264.34;;;6.16;100.00
79309;BME280;68767;53.078;7.386;2023-12-20T08:35:58;101258.75;;;6.17;100.00
79309;BME280;68767;53.078;7.386;2023-12-20T08:38:25;101255.00;;;6.18;100.00
79309;BME280;68767;53.078;7.386;2023-12-20T08:40:52;101257.16;;;6.16;100.00
79309;BME280;68767;53.078;7.386;2023-12-20T08:43:19;101252.34;;;6.18;100.00
79309;BME280;68767;53.078;7.386;2023-12-20T08:45:46;101253.09;;;6.24;100.00
79309;BME280;68767;53.078;7.386;2023-12-20T08:48:13;101252.31;;;6.24;100.00
79309;BME280;68767;53.078;7.386;2023-12-20T08:50:40;101247.25;;;6.22;100.00
79309;BME280;68767;53.078;7.386;2023-12-20T08:53:07;101256.06;;;6.23;100.00
79309;BME280;68767;53.078;7.386;2023-12-20T08:55:34;101240.34;;;6.21;100.00
79309;BME280;68767;53.078;7.386;2023-12-20T08:58:01;101236.81;;;6.26;100.00
79309;BME280;68767;53.078;7.386;2023-12-20T09:00:28;101245.88;;;6.30;100.00
79309;BME280;68767;53.078;7.386;2023-12-20T09:02:56;101243.72;;;6.32;100.00
79309;BME280;68767;53.078;7.386;2023-12-20T09:05:23;101236.72;;;6.36;100.00
79309;BME280;68767;53.078;7.386;2023-12-20T09:07:50;101235.03;;;6.50;100.00
79309;BME280;68767;53.078;7.386;2023-12-20T09:10:18;101227.91;;;6.69;100.00
79309;BME280;68767;53.078;7.386;2023-12-20T09:12:52;101265.25;;;6.74;100.00
79309;BME280;68767;53.078;7.386;2023-12-20T09:15:25;101304.16;;;6.52;100.00
79309;BME280;68767;53.078;7.386;2023-12-20T09:17:53;101312.38;;;6.16;100.00
79309;BME280;68767;53.078;7.386;2023-12-20T09:20:20;101312.78;;;5.79;100.00
79309;BME280;68767;53.078;7.386;2023-12-20T09:22:48;101293.72;;;5.46;100.00
79309;BME280;68767;53.078;7.386;2023-12-20T09:25:15;101300.16;;;5.20;100.00
79309;BME280;68767;53.078;7.386;2023-12-20T09:27:44;101312.16;;;5.12;100.00
79309;BME280;68767;53.078;7.386;2023-12-20T09:30:12;101306.31;;;5.05;100.00
79309;BME280;68767;53.078;7.386;2023-12-20T09:32:51;101319.34;;;4.96;100.00
79309;BME280;68767;53.078;7.386;2023-12-20T09:35:17;101331.34;;;4.94;100.00
79309;BME280;68767;53.078;7.386;2023-12-20T09:37:44;101341.22;;;4.88;100.00
79309;BME280;68767;53.078;7.386;2023-12-20T09:40:14;101355.31;;;4.84;100.00
79309;BME280;68767;53.078;7.386;2023-12-20T09:42:58;101344.66;;;4.84;100.00
79309;BME280;68767;53.078;7.386;2023-12-20T09:45:25;101356.34;;;4.88;100.00
79309;BME280;68767;53.078;7.386;2023-12-20T09:47:53;101334.00;;;4.84;100.00
79309;BME280;68767;53.078;7.386;2023-12-20T09:50:22;101339.84;;;4.86;100.00
79309;BME280;68767;53.078;7.386;2023-12-20T09:52:50;101347.03;;;4.95;100.00
79309;BME280;68767;53.078;7.386;2023-12-20T09:55:18;101340.66;;;4.96;100.00
79309;BME280;68767;53.078;7.386;2023-12-20T09:57:47;101346.78;;;5.02;100.00
79309;BME280;68767;53.078;7.386;2023-12-20T10:00:15;101351.56;;;5.00;100.00
79309;BME280;68767;53.078;7.386;2023-12-20T10:03:05;101363.03;;;5.05;100.00
79309;BME280;68767;53.078;7.386;2023-12-20T10:05:33;101356.34;;;5.03;100.00
79309;BME280;68767;53.078;7.386;2023-12-20T10:08:01;101359.03;;;5.08;100.00
79309;BME280;68767;53.078;7.386;2023-12-20T10:10:30;101358.75;;;5.10;100.00
79309;BME280;68767;53.078;7.386;2023-12-20T10:13:11;101360.88;;;5.13;100.00
79309;BME280;68767;53.078;7.386;2023-12-20T10:15:39;101360.91;;;5.07;100.00
79309;BME280;68767;53.078;7.386;2023-12-20T10:18:09;101356.63;;;5.01;100.00
79309;BME280;68767;53.078;7.386;2023-12-20T10:20:37;101354.75;;;5.02;100.00
79309;BME280;68767;53.078;7.386;2023-12-20T10:23:04;101363.81;;;5.01;100.00
79309;BME280;68767;53.078;7.386;2023-12-20T10:25:31;101355.56;;;5.07;100.00
79309;BME280;68767;53.078;7.386;2023-12-20T10:30:36;101334.25;;;5.13;100.00
79309;BME280;68767;53.078;7.386;2023-12-20T10:33:06;101336.63;;;5.19;100.00
79309;BME280;68767;53.078;7.386;2023-12-20T10:35:34;101322.81;;;5.22;100.00
79309;BME280;68767;53.078;7.386;2023-12-20T10:38:04;101323.06;;;5.21;100.00
79309;BME280;68767;53.078;7.386;2023-12-20T10:40:34;101329.47;;;5.30;100.00
79309;BME280;68767;53.078;7.386;2023-12-20T10:43:04;101319.84;;;5.34;100.00
79309;BME280;68767;53.078;7.386;2023-12-20T10:45:31;101321.97;;;5.37;100.00
79309;BME280;68767;53.078;7.386;2023-12-20T10:47:58;101313.19;;;5.31;100.00
79309;BME280;68767;53.078;7.386;2023-12-20T10:50:28;101315.31;;;5.34;100.00
79309;BME280;68767;53.078;7.386;2023-12-20T10:52:57;101314.25;;;5.41;100.00
79309;BME280;68767;53.078;7.386;2023-12-20T10:55:25;101304.34;;;5.51;100.00
79309;BME280;68767;53.078;7.386;2023-12-20T10:58:08;101306.72;;;5.63;100.00
79309;BME280;68767;53.078;7.386;2023-12-20T11:00:39;101302.44;;;5.72;100.00
79309;BME280;68767;53.078;7.386;2023-12-20T11:03:11;101287.75;;;5.75;100.00
79309;BME280;68767;53.078;7.386;2023-12-20T11:05:46;101286.94;;;5.79;100.00
79309;BME280;68767;53.078;7.386;2023-12-20T11:11:08;101270.03;;;6.04;100.00
79309;BME280;68767;53.078;7.386;2023-12-20T11:13:51;101246.25;;;6.13;100.00
79309;BME280;68767;53.078;7.386;2023-12-20T11:16:20;101241.16;;;6.16;100.00
79309;BME280;68767;53.078;7.386;2023-12-20T11:18:51;101231.78;;;6.19;100.00
79309;BME280;68767;53.078;7.386;2023-12-20T11:21:19;101229.38;;;6.23;100.00
79309;BME280;68767;53.078;7.386;2023-12-20T11:23:46;101239.47;;;6.31;100.00
79309;BME280;68767;53.078;7.386;2023-12-20T11:26:15;101230.06;;;6.38;100.00
79309;BME280;68767;53.078;7.386;2023-12-20T11:28:43;101245.94;;;6.54;100.00
79309;BME280;68767;53.078;7.386;2023-12-20T11:31:13;101229.91;;;6.54;100.00
79309;BME280;68767;53.078;7.386;2023-12-20T11:33:41;101215.44;;;6.65;100.00
79309;BME280;68767;53.078;7.386;2023-12-20T11:36:15;101220.44;;;6.71;100.00
79309;BME280;68767;53.078;7.386;2023-12-20T11:39:00;101201.63;;;6.53;100.00
79309;BME280;68767;53.078;7.386;2023-12-20T11:41:27;101198.66;;;6.25;100.00
79309;BME280;68767;53.078;7.386;2023-12-20T11:43:55;101201.41;;;6.15;100.00
79309;BME280;68767;53.078;7.386;2023-12-20T11:46:23;101210.09;;;5.97;100.00
79309;BME280;68767;53.078;7.386;2023-12-20T11:48:50;101196.22;;;5.95;100.00
79309;BME280;68767;53.078;7.386;2023-12-20T11:51:18;101186.03;;;6.02;100.00
79309;BME280;68767;53.078;7.386;2023-12-20T11:53:45;101203.00;;;6.16;100.00
79309;BME280;68767;53.078;7.386;2023-12-20T11:56:11;101200.53;;;6.25;100.00
79309;BME280;68767;53.078;7.386;2023-12-20T11:58:39;101207.66;;;6.34;100.00
79309;BME280;68767;53.078;7.386;2023-12-20T12:01:06;101207.94;;;6.33;100.00
79309;BME280;68767;53.078;7.386;2023-12-20T12:03:35;101209.75;;;6.42;100.00
79309;BME280;68767;53.078;7.386;2023-12-20T12:06:02;101202.25;;;6.44;100.00
79309;BME280;68767;53.078;7.386;2023-12-20T12:08:32;101200.75;;;6.33;100.00
79309;BME280;68767;53.078;7.386;2023-12-20T12:10:59;101196.03;;;6.20;100.00
79309;BME280;68767;53.078;7.386;2023-12-20T12:13:26;101207.03;;;6.13;100.00
79309;BME280;68767;53.078;7.386;2023-12-20T12:15:54;101202.22;;;6.15;100.00
79309;BME280;68767;53.078;7.386;2023-12-20T12:18:21;101206.84;;;6.39;100.00
79309;BME280;68767;53.078;7.386;2023-12-20T12:20:49;101189.88;;;6.54;100.00
79309;BME280;68767;53.078;7.386;2023-12-20T12:23:23;101183.94;;;6.62;100.00
79309;BME280;68767;53.078;7.386;2023-12-20T12:25:51;101171.81;;;6.74;100.00
79309;BME280;68767;53.078;7.386;2023-12-20T12:28:20;101162.28;;;6.92;100.00
79309;BME280;68767;53.078;7.386;2023-12-20T12:30:58;101166.44;;;6.80;100.00
79309;BME280;68767;53.078;7.386;2023-12-20T12:33:25;101153.72;;;6.66;100.00
79309;BME280;68767;53.078;7.386;2023-12-20T12:35:53;101149.22;;;6.62;100.00
79309;BME280;68767;53.078;7.386;2023-12-20T12:38:24;101146.06;;;6.60;100.00
79309;BME280;68767;53.078;7.386;2023-12-20T12:40:51;101152.47;;;6.59;100.00
79309;BME280;68767;53.078;7.386;2023-12-20T12:43:20;101150.09;;;6.57;100.00
79309;BME280;68767;53.078;7.386;2023-12-20T12:45:49;101151.88;;;6.38;100.00
79309;BME280;68767;53.078;7.386;2023-12-20T12:48:16;101156.50;;;6.27;100.00
79309;BME280;68767;53.078;7.386;2023-12-20T12:50:44;101154.13;;;6.20;100.00
79309;BME280;68767;53.078;7.386;2023-12-20T12:53:11;101158.06;;;6.28;100.00
79309;BME280;68767;53.078;7.386;2023-12-20T12:55:38;101153.81;;;6.27;100.00
79309;BME280;68767;53.078;7.386;2023-12-20T12:58:05;101164.50;;;6.27;100.00
79309;BME280;68767;53.078;7.386;2023-12-20T13:00:32;101167.13;;;6.32;100.00